createdAt,value
2019-02-19T00:00:30.143Z,87.27
2019-02-19T00:02:58.412Z,88.01
2019-02-19T00:05:26.702Z,88.29
2019-02-19T00:07:54.977Z,88.54
2019-02-19T00:10:23.240Z,88.90
2019-02-19T00:12:51.512Z,88.99
2019-02-19T00:15:19.773Z,88.78
2019-02-19T00:17:48.082Z,89.18
2019-02-19T00:20:16.344Z,89.47
2019-02-19T00:22:44.612Z,89.66
2019-02-19T00:25:12.898Z,90.10
2019-02-19T00:27:41.167Z,90.55
2019-02-19T00:30:09.502Z,90.58
2019-02-19T00:32:37.777Z,90.60
2019-02-19T00:35:06.630Z,90.79
2019-02-19T00:37:34.878Z,90.58
2019-02-19T00:40:03.165Z,90.36
2019-02-19T00:42:31.446Z,90.12
2019-02-19T00:44:59.705Z,89.85
2019-02-19T00:47:28.001Z,89.71
2019-02-19T00:49:56.249Z,89.63
2019-02-19T00:52:24.543Z,89.34
2019-02-19T00:54:52.873Z,89.01
2019-02-19T00:57:21.137Z,89.30
2019-02-19T00:59:49.388Z,89.13
2019-02-19T01:02:17.686Z,89.15
2019-02-19T01:04:45.965Z,88.77
2019-02-19T01:07:14.255Z,88.53
2019-02-19T01:09:42.536Z,88.53
2019-02-19T01:12:10.787Z,88.44
2019-02-19T01:14:39.105Z,88.13
2019-02-19T01:17:07.390Z,88.10
2019-02-19T01:19:35.683Z,88.52
2019-02-19T01:22:03.973Z,88.62
2019-02-19T01:24:32.235Z,88.49
2019-02-19T01:27:00.544Z,88.80
2019-02-19T01:29:28.803Z,88.47
2019-02-19T01:31:57.083Z,88.13
2019-02-19T01:34:25.364Z,87.77
2019-02-19T01:36:53.634Z,88.45
2019-02-19T01:39:21.932Z,88.40
2019-02-19T01:41:50.210Z,88.37
2019-02-19T01:44:18.480Z,88.11
2019-02-19T01:46:47.702Z,88.12
2019-02-19T01:49:15.980Z,88.70
2019-02-19T01:51:44.250Z,89.03
2019-02-19T01:54:12.548Z,89.03
2019-02-19T01:56:40.819Z,89.35
2019-02-19T01:59:09.090Z,89.15
2019-02-19T02:01:37.394Z,88.85
2019-02-19T02:04:05.661Z,89.04
2019-02-19T02:06:33.939Z,88.84
2019-02-19T02:09:02.211Z,88.57
2019-02-19T02:11:30.477Z,88.48
2019-02-19T02:13:58.751Z,88.67
2019-02-19T02:16:27.053Z,88.14
2019-02-19T02:18:55.346Z,88.60
2019-02-19T02:21:23.620Z,88.73
2019-02-19T02:23:51.916Z,88.53
2019-02-19T02:26:20.183Z,88.54
2019-02-19T02:28:48.464Z,88.71
2019-02-19T02:31:16.746Z,88.86
2019-02-19T02:33:45.012Z,89.81
2019-02-19T02:36:13.296Z,89.86
2019-02-19T02:38:41.587Z,89.63
2019-02-19T02:41:09.864Z,89.76
2019-02-19T02:43:38.136Z,90.00
2019-02-19T02:46:06.449Z,89.97
2019-02-19T02:48:34.737Z,89.80
2019-02-19T02:51:03.082Z,90.13
2019-02-19T02:53:31.361Z,90.25
2019-02-19T02:55:59.654Z,90.25
2019-02-19T02:58:27.938Z,90.37
2019-02-19T03:00:56.224Z,90.23
2019-02-19T03:03:24.528Z,90.34
2019-02-19T03:06:01.760Z,90.02
2019-02-19T03:08:30.031Z,90.04
2019-02-19T03:10:58.287Z,89.67
2019-02-19T03:13:26.602Z,89.55
2019-02-19T03:16:02.154Z,89.73
2019-02-19T03:18:24.853Z,89.63
2019-02-19T03:20:53.163Z,89.66
2019-02-19T03:23:21.480Z,89.93
2019-02-19T03:25:49.765Z,88.87
2019-02-19T03:28:18.047Z,88.16
2019-02-19T03:30:46.346Z,88.18
2019-02-19T03:33:14.626Z,87.96
2019-02-19T03:35:42.897Z,87.69
2019-02-19T03:38:11.190Z,87.51
2019-02-19T03:40:39.491Z,87.57
2019-02-19T03:43:07.792Z,87.61
2019-02-19T03:45:36.092Z,87.41
2019-02-19T03:48:04.356Z,87.32
2019-02-19T03:50:32.637Z,87.62
2019-02-19T03:53:00.910Z,88.40
2019-02-19T03:55:29.182Z,88.58
2019-02-19T03:57:57.535Z,88.91
2019-02-19T04:00:25.892Z,89.35
2019-02-19T04:02:54.152Z,89.41
2019-02-19T04:05:22.438Z,89.59
2019-02-19T04:07:50.701Z,89.62
2019-02-19T04:10:18.971Z,89.71
2019-02-19T04:12:47.247Z,89.82
2019-02-19T04:15:15.507Z,90.30
2019-02-19T04:17:43.783Z,90.94
2019-02-19T04:20:12.046Z,91.42
2019-02-19T04:22:40.314Z,92.31
2019-02-19T04:25:08.590Z,92.87
2019-02-19T04:27:36.898Z,93.85
2019-02-19T04:30:06.997Z,94.26
2019-02-19T04:32:35.259Z,94.54
2019-02-19T04:35:04.018Z,94.93
2019-02-19T04:37:32.292Z,95.78
2019-02-19T04:40:00.668Z,96.10
2019-02-19T04:42:28.920Z,96.31
2019-02-19T04:44:57.201Z,96.43
2019-02-19T04:47:25.548Z,97.26
2019-02-19T04:49:53.817Z,97.70
2019-02-19T04:52:22.081Z,98.00
2019-02-19T04:54:50.346Z,98.95
2019-02-19T04:57:18.637Z,100.00
2019-02-19T04:59:46.944Z,100.00
2019-02-19T05:02:15.279Z,100.00
2019-02-19T05:04:43.561Z,100.00
2019-02-19T05:07:11.869Z,100.00
2019-02-19T05:09:40.180Z,100.00
2019-02-19T05:12:08.435Z,100.00
2019-02-19T05:14:36.708Z,100.00
2019-02-19T05:17:05.050Z,100.00
2019-02-19T05:19:33.314Z,100.00
2019-02-19T05:22:01.590Z,100.00
2019-02-19T05:24:29.862Z,100.00
2019-02-19T05:26:58.147Z,100.00
2019-02-19T05:29:26.417Z,100.00
2019-02-19T05:31:54.706Z,100.00
2019-02-19T05:34:22.967Z,100.00
2019-02-19T05:36:51.257Z,100.00
2019-02-19T05:39:19.525Z,100.00
2019-02-19T05:41:47.812Z,100.00
2019-02-19T05:44:16.091Z,100.00
2019-02-19T05:46:49.875Z,100.00
2019-02-19T05:49:14.338Z,100.00
2019-02-19T05:51:42.611Z,100.00
2019-02-19T05:54:10.884Z,100.00
2019-02-19T05:56:39.140Z,100.00
2019-02-19T05:59:07.428Z,100.00
2019-02-19T06:01:35.715Z,100.00
2019-02-19T06:04:03.970Z,100.00
2019-02-19T06:06:32.251Z,100.00
2019-02-19T06:09:00.506Z,100.00
2019-02-19T06:11:28.808Z,100.00
2019-02-19T06:13:57.082Z,100.00
2019-02-19T06:16:25.372Z,100.00
2019-02-19T06:18:53.641Z,100.00
2019-02-19T06:21:21.912Z,100.00
2019-02-19T06:23:50.180Z,100.00
2019-02-19T06:26:18.457Z,100.00
2019-02-19T06:28:46.740Z,100.00
2019-02-19T06:31:15.000Z,100.00
2019-02-19T06:33:44.090Z,100.00
2019-02-19T06:36:12.362Z,100.00
2019-02-19T06:38:40.628Z,100.00
2019-02-19T06:41:08.909Z,100.00
2019-02-19T06:43:37.177Z,100.00
2019-02-19T06:46:05.450Z,100.00
2019-02-19T06:48:33.734Z,100.00
2019-02-19T06:51:02.008Z,100.00
2019-02-19T06:53:30.280Z,100.00
2019-02-19T06:55:58.548Z,100.00
2019-02-19T06:58:26.827Z,100.00
2019-02-19T07:00:55.094Z,100.00
2019-02-19T07:03:25.018Z,100.00
2019-02-19T07:05:53.298Z,100.00
2019-02-19T07:08:21.558Z,100.00
2019-02-19T07:10:49.830Z,100.00
2019-02-19T07:13:18.086Z,100.00
2019-02-19T07:15:46.349Z,100.00
2019-02-19T07:18:15.427Z,100.00
2019-02-19T07:20:43.683Z,100.00
2019-02-19T07:23:11.953Z,100.00
2019-02-19T07:25:40.228Z,100.00
2019-02-19T07:28:08.487Z,100.00
2019-02-19T07:30:36.766Z,100.00
2019-02-19T07:33:05.042Z,100.00
2019-02-19T07:35:33.333Z,100.00
2019-02-19T07:38:01.600Z,100.00
2019-02-19T07:40:29.857Z,100.00
2019-02-19T07:42:58.121Z,100.00
2019-02-19T07:45:26.384Z,100.00
2019-02-19T07:47:54.655Z,100.00
2019-02-19T07:50:22.930Z,100.00
2019-02-19T07:52:51.198Z,100.00
2019-02-19T07:55:19.461Z,100.00
2019-02-19T07:57:47.742Z,100.00
2019-02-19T08:00:16.023Z,100.00
2019-02-19T08:02:44.288Z,100.00
2019-02-19T08:05:12.562Z,100.00
2019-02-19T08:07:40.843Z,100.00
2019-02-19T08:10:10.854Z,100.00
2019-02-19T08:12:39.118Z,100.00
2019-02-19T08:15:11.464Z,100.00
2019-02-19T08:17:39.729Z,100.00
2019-02-19T08:20:15.407Z,100.00
2019-02-19T08:22:39.297Z,100.00
2019-02-19T08:25:07.566Z,100.00
2019-02-19T08:27:35.851Z,100.00
2019-02-19T08:30:05.789Z,100.00
2019-02-19T08:32:34.049Z,100.00
2019-02-19T08:35:02.319Z,100.00
2019-02-19T08:37:30.650Z,100.00
2019-02-19T08:39:58.925Z,100.00
2019-02-19T08:42:27.200Z,100.00
2019-02-19T08:44:55.456Z,100.00
2019-02-19T08:47:23.712Z,100.00
2019-02-19T08:49:51.989Z,100.00
2019-02-19T08:52:20.254Z,100.00
2019-02-19T08:54:48.526Z,100.00
2019-02-19T08:57:16.778Z,100.00
2019-02-19T08:59:45.291Z,100.00
2019-02-19T09:02:13.566Z,100.00
2019-02-19T09:04:41.816Z,100.00
2019-02-19T09:07:10.079Z,100.00
2019-02-19T09:09:38.359Z,100.00
2019-02-19T09:12:06.650Z,100.00
2019-02-19T09:14:34.910Z,100.00
2019-02-19T09:17:03.179Z,100.00
2019-02-19T09:19:31.461Z,100.00
2019-02-19T09:21:59.805Z,100.00
2019-02-19T09:24:28.091Z,100.00
2019-02-19T09:26:56.379Z,99.95
2019-02-19T09:29:24.629Z,99.70
2019-02-19T09:31:52.890Z,99.23
2019-02-19T09:34:22.707Z,98.98
2019-02-19T09:36:50.983Z,98.89
2019-02-19T09:39:19.251Z,97.94
2019-02-19T09:41:47.507Z,97.65
2019-02-19T09:44:15.822Z,96.75
2019-02-19T09:46:44.102Z,96.71
2019-02-19T09:49:12.351Z,96.03
2019-02-19T09:51:40.602Z,95.58
2019-02-19T09:54:08.866Z,95.33
2019-02-19T09:56:37.116Z,95.60
2019-02-19T09:59:05.374Z,95.62
2019-02-19T10:01:33.645Z,95.26
2019-02-19T10:04:01.910Z,95.20
2019-02-19T10:06:30.171Z,94.51
2019-02-19T10:08:58.425Z,94.28
2019-02-19T10:11:26.754Z,94.40
2019-02-19T10:13:55.026Z,93.96
2019-02-19T10:16:23.282Z,93.44
2019-02-19T10:18:51.583Z,93.35
2019-02-19T10:21:19.821Z,93.33
2019-02-19T10:23:48.099Z,93.22
2019-02-19T10:26:16.359Z,92.87
2019-02-19T10:28:44.624Z,92.58
2019-02-19T10:31:12.877Z,92.68
2019-02-19T10:33:41.936Z,92.55
2019-02-19T10:36:10.200Z,92.60
2019-02-19T10:38:38.458Z,92.11
2019-02-19T10:41:06.716Z,91.41
2019-02-19T10:43:34.982Z,91.29
2019-02-19T10:46:03.242Z,90.09
2019-02-19T10:48:31.506Z,90.09
2019-02-19T10:50:59.787Z,89.48
2019-02-19T10:53:28.060Z,89.48
2019-02-19T10:55:56.317Z,89.76
2019-02-19T10:58:24.583Z,90.26
2019-02-19T11:00:52.851Z,90.01
2019-02-19T11:03:21.122Z,89.66
2019-02-19T11:05:49.378Z,89.36
2019-02-19T11:08:17.649Z,88.29
2019-02-19T11:10:45.915Z,87.07
2019-02-19T11:13:14.176Z,86.64
2019-02-19T11:15:42.451Z,86.25
2019-02-19T11:18:10.697Z,86.14
2019-02-19T11:20:38.971Z,86.12
2019-02-19T11:23:07.236Z,86.48
2019-02-19T11:25:35.509Z,86.26
2019-02-19T11:28:03.777Z,86.40
2019-02-19T11:30:32.045Z,86.58
2019-02-19T11:33:00.295Z,87.06
2019-02-19T11:35:28.569Z,87.01
2019-02-19T11:37:56.842Z,86.93
2019-02-19T11:40:25.103Z,87.29
2019-02-19T11:42:53.364Z,86.94
2019-02-19T11:45:23.285Z,86.94
2019-02-19T11:47:51.470Z,86.75
2019-02-19T11:50:19.741Z,86.55
2019-02-19T11:52:48.025Z,86.76
2019-02-19T11:55:20.575Z,86.84
2019-02-19T11:57:48.833Z,86.97
2019-02-19T12:00:18.908Z,87.28
2019-02-19T12:02:49.191Z,87.68
2019-02-19T12:05:17.161Z,87.45
2019-02-19T12:07:45.443Z,87.74
2019-02-19T12:10:13.703Z,88.28
2019-02-19T12:12:41.959Z,88.24
2019-02-19T12:15:13.580Z,88.60
2019-02-19T12:17:41.846Z,89.01
2019-02-19T12:20:13.956Z,88.91
2019-02-19T12:22:42.279Z,88.91
2019-02-19T12:25:11.087Z,89.13
2019-02-19T12:27:39.347Z,89.13
2019-02-19T12:30:16.660Z,89.23
2019-02-19T12:32:44.937Z,89.24
2019-02-19T12:35:13.204Z,89.71
2019-02-19T12:37:41.470Z,90.12
2019-02-19T12:40:11.576Z,90.97
2019-02-19T12:42:39.842Z,92.06
2019-02-19T12:45:10.480Z,92.61
2019-02-19T12:47:38.785Z,93.46
2019-02-19T12:50:12.259Z,93.25
2019-02-19T12:52:40.527Z,93.86
2019-02-19T12:55:09.619Z,93.76
2019-02-19T12:57:37.891Z,93.44
2019-02-19T13:00:09.561Z,93.14
2019-02-19T13:02:37.826Z,93.17
2019-02-19T13:05:08.318Z,93.39
2019-02-19T13:07:36.988Z,93.03
2019-02-19T13:10:07.764Z,92.59
2019-02-19T13:12:36.035Z,92.69
2019-02-19T13:15:06.245Z,92.69
2019-02-19T13:17:34.510Z,92.95
2019-02-19T13:20:02.935Z,92.88
2019-02-19T13:22:31.202Z,93.18
2019-02-19T13:24:59.451Z,93.29
2019-02-19T13:27:27.801Z,93.62
2019-02-19T13:29:56.058Z,94.35
2019-02-19T13:32:24.342Z,95.40
2019-02-19T13:34:52.609Z,98.27
2019-02-19T13:37:20.878Z,100.00
2019-02-19T13:39:49.158Z,100.00
2019-02-19T13:42:17.423Z,100.00
2019-02-19T13:44:45.692Z,100.00
2019-02-19T13:47:13.954Z,100.00
2019-02-19T13:49:42.217Z,100.00
2019-02-19T13:52:12.153Z,100.00
2019-02-19T13:54:41.080Z,100.00
2019-02-19T13:57:09.356Z,100.00
2019-02-19T13:59:37.609Z,100.00
2019-02-19T14:02:06.363Z,100.00
2019-02-19T14:04:34.638Z,100.00
2019-02-19T14:07:02.910Z,100.00
2019-02-19T14:09:31.184Z,100.00
2019-02-19T14:11:59.454Z,100.00
2019-02-19T14:14:41.422Z,100.00
2019-02-19T14:17:09.842Z,100.00
2019-02-19T14:19:39.763Z,100.00
2019-02-19T14:22:25.635Z,100.00
2019-02-19T14:24:55.535Z,100.00
2019-02-19T14:27:27.900Z,100.00
2019-02-19T14:30:03.608Z,100.00
2019-02-19T14:32:49.613Z,100.00
2019-02-19T14:35:35.457Z,100.00
2019-02-19T14:38:05.362Z,100.00
2019-02-19T14:40:50.929Z,100.00
2019-02-19T14:43:32.265Z,100.00
2019-02-19T14:46:05.079Z,100.00
2019-02-19T14:48:35.013Z,100.00
2019-02-19T14:51:04.915Z,100.00
2019-02-19T14:53:40.795Z,100.00
2019-02-19T14:56:25.785Z,100.00
2019-02-19T14:59:07.475Z,100.00
2019-02-19T15:01:43.056Z,100.00
2019-02-19T15:04:12.999Z,100.00
2019-02-19T15:06:48.984Z,100.00
2019-02-19T15:09:21.655Z,100.00
2019-02-19T15:11:51.578Z,100.00
2019-02-19T15:14:24.371Z,100.00
2019-02-19T15:16:56.951Z,100.00
2019-02-19T15:19:29.248Z,100.00
2019-02-19T15:22:07.687Z,100.00
2019-02-19T15:24:55.136Z,100.00
2019-02-19T15:27:27.441Z,100.00
2019-02-19T15:30:05.806Z,100.00
2019-02-19T15:32:50.791Z,100.00
2019-02-19T15:35:36.928Z,100.00
2019-02-19T15:38:22.959Z,100.00
2019-02-19T15:41:01.274Z,100.00
2019-02-19T15:43:31.171Z,100.00
2019-02-19T15:46:03.787Z,100.00
2019-02-19T15:48:33.862Z,100.00
2019-02-19T15:51:06.469Z,100.00
2019-02-19T15:53:48.212Z,100.00
2019-02-19T15:56:18.119Z,100.00
2019-02-19T15:58:50.808Z,100.00
2019-02-19T16:01:23.109Z,100.00
2019-02-19T16:03:52.998Z,100.00
2019-02-19T16:06:25.879Z,100.00
2019-02-19T16:08:55.782Z,100.00
2019-02-19T16:11:31.388Z,100.00
2019-02-19T16:14:01.281Z,100.00
2019-02-19T16:16:47.230Z,100.00
2019-02-19T16:19:28.882Z,100.00
2019-02-19T16:22:07.865Z,100.00
2019-02-19T16:24:53.778Z,100.00
2019-02-19T16:27:29.717Z,100.00
2019-02-19T16:30:17.708Z,100.00
2019-02-19T16:33:03.767Z,100.00
2019-02-19T16:35:33.663Z,100.00
2019-02-19T16:38:03.581Z,100.00
2019-02-19T16:40:36.117Z,100.00
2019-02-19T16:43:21.692Z,100.00
2019-02-19T16:45:54.515Z,100.00
2019-02-19T16:48:24.434Z,100.00
2019-02-19T16:50:54.333Z,100.00
2019-02-19T16:53:24.248Z,100.00
2019-02-19T16:56:10.075Z,100.00
2019-02-19T16:58:45.999Z,100.00
2019-02-19T17:01:21.625Z,100.00
2019-02-19T17:03:54.476Z,100.00
2019-02-19T17:06:24.469Z,100.00
2019-02-19T17:09:10.334Z,100.00
2019-02-19T17:11:49.297Z,100.00
2019-02-19T17:14:19.214Z,100.00
2019-02-19T17:16:51.757Z,100.00
2019-02-19T17:19:30.594Z,100.00
2019-02-19T17:22:03.212Z,100.00
2019-02-19T17:24:42.063Z,100.00
2019-02-19T17:27:20.779Z,100.00
2019-02-19T17:29:50.955Z,100.00
2019-02-19T17:32:36.805Z,100.00
2019-02-19T17:35:08.152Z,100.00
2019-02-19T17:37:40.735Z,100.00
2019-02-19T17:40:10.702Z,100.00
2019-02-19T17:42:40.612Z,100.00
2019-02-19T17:45:13.246Z,100.00
2019-02-19T17:47:51.886Z,100.00
2019-02-19T17:50:38.774Z,100.00
2019-02-19T17:53:24.780Z,100.00
2019-02-19T17:55:54.691Z,100.00
2019-02-19T17:58:33.277Z,100.00
2019-02-19T18:01:20.956Z,100.00
2019-02-19T18:03:50.871Z,100.00
2019-02-19T18:06:23.465Z,100.00
2019-02-19T18:09:10.914Z,100.00
2019-02-19T18:11:52.764Z,100.00
2019-02-19T18:14:28.573Z,100.00
2019-02-19T18:17:13.541Z,100.00
2019-02-19T18:19:41.806Z,100.00
2019-02-19T18:22:10.061Z,100.00
2019-02-19T18:24:38.350Z,100.00
2019-02-19T18:27:06.613Z,100.00
2019-02-19T18:29:34.881Z,100.00
2019-02-19T18:32:03.150Z,100.00
2019-02-19T18:34:31.424Z,100.00
2019-02-19T18:36:59.673Z,100.00
2019-02-19T18:39:27.952Z,100.00
2019-02-19T18:41:56.214Z,100.00
2019-02-19T18:44:24.467Z,100.00
2019-02-19T18:46:52.743Z,100.00
2019-02-19T18:49:21.002Z,100.00
2019-02-19T18:51:49.264Z,100.00
2019-02-19T18:54:17.543Z,100.00
2019-02-19T18:56:45.816Z,100.00
2019-02-19T18:59:14.099Z,100.00
2019-02-19T19:01:42.402Z,100.00
2019-02-19T19:04:10.673Z,100.00
2019-02-19T19:06:38.950Z,100.00
2019-02-19T19:09:07.294Z,100.00
2019-02-19T19:11:35.572Z,100.00
2019-02-19T19:14:03.836Z,100.00
2019-02-19T19:16:32.112Z,100.00
2019-02-19T19:19:00.382Z,100.00
2019-02-19T19:21:28.638Z,100.00
2019-02-19T19:23:57.010Z,100.00
2019-02-19T19:26:25.288Z,100.00
2019-02-19T19:28:53.568Z,100.00
2019-02-19T19:31:21.841Z,100.00
2019-02-19T19:33:50.106Z,100.00
2019-02-19T19:36:18.364Z,100.00
2019-02-19T19:38:46.643Z,100.00
2019-02-19T19:41:14.904Z,100.00
2019-02-19T19:43:43.528Z,100.00
2019-02-19T19:46:11.782Z,100.00
2019-02-19T19:48:40.074Z,100.00
2019-02-19T19:51:16.915Z,100.00
2019-02-19T19:53:38.861Z,100.00
2019-02-19T19:56:07.136Z,100.00
2019-02-19T19:58:35.403Z,100.00
2019-02-19T20:01:03.685Z,100.00
2019-02-19T20:03:31.954Z,100.00
2019-02-19T20:06:00.233Z,100.00
2019-02-19T20:08:28.498Z,100.00
2019-02-19T20:10:56.767Z,100.00
2019-02-19T20:13:25.041Z,100.00
2019-02-19T20:15:53.308Z,100.00
2019-02-19T20:18:21.598Z,100.00
2019-02-19T20:20:49.941Z,100.00
2019-02-19T20:23:18.233Z,100.00
2019-02-19T20:25:46.526Z,100.00
2019-02-19T20:28:14.794Z,100.00
2019-02-19T20:30:43.045Z,100.00
2019-02-19T20:33:11.313Z,100.00
2019-02-19T20:35:39.585Z,100.00
2019-02-19T20:38:07.849Z,100.00
2019-02-19T20:40:36.102Z,100.00
2019-02-19T20:43:04.375Z,100.00
2019-02-19T20:45:32.652Z,100.00
2019-02-19T20:48:00.993Z,100.00
2019-02-19T20:50:29.256Z,100.00
2019-02-19T20:52:57.511Z,100.00
2019-02-19T20:55:25.825Z,100.00
2019-02-19T20:57:54.109Z,100.00
2019-02-19T21:00:22.387Z,100.00
2019-02-19T21:02:50.667Z,100.00
2019-02-19T21:05:18.928Z,100.00
2019-02-19T21:07:47.191Z,100.00
2019-02-19T21:10:19.523Z,100.00
2019-02-19T21:12:47.830Z,100.00
2019-02-19T21:15:16.092Z,100.00
2019-02-19T21:17:44.342Z,100.00
2019-02-19T21:20:12.892Z,100.00
2019-02-19T21:22:41.164Z,100.00
2019-02-19T21:25:10.371Z,100.00
2019-02-19T21:27:38.629Z,100.00
2019-02-19T21:30:12.302Z,100.00
2019-02-19T21:32:40.567Z,100.00
2019-02-19T21:35:09.477Z,100.00
2019-02-19T21:37:37.813Z,100.00
2019-02-19T21:40:11.063Z,100.00
2019-02-19T21:42:39.338Z,100.00
2019-02-19T21:45:13.621Z,100.00
2019-02-19T21:47:41.907Z,100.00
2019-02-19T21:50:11.397Z,100.00
2019-02-19T21:52:39.835Z,100.00
2019-02-19T21:55:12.092Z,100.00
2019-02-19T21:57:40.361Z,100.00
2019-02-19T22:00:11.006Z,100.00
2019-02-19T22:02:39.290Z,100.00
2019-02-19T22:05:07.722Z,100.00
2019-02-19T22:07:35.980Z,100.00
2019-02-19T22:10:05.896Z,100.00
2019-02-19T22:12:34.167Z,100.00
2019-02-19T22:15:02.425Z,100.00
2019-02-19T22:17:30.691Z,100.00
2019-02-19T22:20:03.142Z,100.00
2019-02-19T22:22:29.222Z,100.00
2019-02-19T22:24:57.470Z,100.00
2019-02-19T22:27:25.736Z,100.00
2019-02-19T22:29:53.989Z,100.00
2019-02-19T22:32:22.253Z,100.00
2019-02-19T22:34:50.534Z,100.00
2019-02-19T22:37:18.928Z,100.00
2019-02-19T22:39:47.441Z,100.00
2019-02-19T22:42:15.741Z,100.00
2019-02-19T22:44:43.991Z,100.00
2019-02-19T22:47:12.278Z,100.00
2019-02-19T22:49:40.570Z,100.00
2019-02-19T22:52:12.495Z,100.00
2019-02-19T22:54:40.513Z,100.00
2019-02-19T22:57:08.776Z,100.00
2019-02-19T22:59:37.050Z,100.00
2019-02-19T23:02:07.031Z,100.00
2019-02-19T23:04:35.312Z,100.00
2019-02-19T23:07:03.574Z,100.00
2019-02-19T23:09:31.854Z,100.00
2019-02-19T23:12:03.028Z,100.00
2019-02-19T23:14:31.295Z,100.00
2019-02-19T23:16:59.574Z,100.00
2019-02-19T23:19:27.845Z,100.00
2019-02-19T23:21:56.129Z,100.00
2019-02-19T23:24:24.370Z,100.00
2019-02-19T23:26:52.738Z,100.00
2019-02-19T23:29:21.000Z,100.00
2019-02-19T23:31:49.274Z,100.00
2019-02-19T23:34:17.558Z,100.00
2019-02-19T23:36:47.461Z,100.00
2019-02-19T23:39:15.751Z,100.00
2019-02-19T23:41:44.026Z,100.00
2019-02-19T23:44:12.320Z,100.00
2019-02-19T23:46:40.581Z,100.00
2019-02-19T23:49:08.891Z,100.00
2019-02-19T23:51:37.105Z,100.00
2019-02-19T23:54:05.379Z,100.00
2019-02-19T23:56:33.658Z,100.00
2019-02-19T23:59:01.926Z,100.00
